Time;durP1;ratioP1;P1;durP2;ratioP2;P2;SDS_P1;SDS_P2;PMS_P1;PMS_P2;Temp;Humidity;BMP_temperature;BMP_pressure;BME280_temperature;BME280_humidity;BME280_pressure;Samples;Min_cycle;Max_cycle;Signal;HPM_P1;HPM_P2
2021/01/13 00:00:27;;;;;;;26.30;12.95;;;2.50;99.90;;;;;;4990629;28;20161;-80
2021/01/13 00:02:54;;;;;;;28.73;11.82;;;2.40;99.90;;;;;;4986478;28;20144;-79
2021/01/13 00:05:20;;;;;;;26.10;12.15;;;2.50;99.90;;;;;;5009844;28;20064;-78
2021/01/13 00:07:49;;;;;;;25.38;11.60;;;2.50;99.90;;;;;;5017401;28;20092;-79
2021/01/13 00:10:17;;;;;;;27.25;12.10;;;2.40;99.90;;;;;;5017570;28;20054;-79
2021/01/13 00:12:44;;;;;;;26.75;11.88;;;2.40;99.90;;;;;;5017898;28;20046;-81
2021/01/13 00:15:10;;;;;;;27.30;12.23;;;2.40;99.90;;;;;;4999355;28;20400;-81
2021/01/13 00:17:38;;;;;;;26.00;11.90;;;2.40;99.90;;;;;;5015644;28;20080;-81
2021/01/13 00:20:06;;;;;;;20.02;11.65;;;2.40;99.90;;;;;;5021207;28;20104;-81
2021/01/13 00:22:33;;;;;;;29.15;13.18;;;2.40;99.90;;;;;;5021499;28;20089;-81
2021/01/13 00:24:59;;;;;;;25.35;11.93;;;2.40;99.90;;;;;;5021970;28;20050;-81
2021/01/13 00:27:26;;;;;;;25.33;12.43;;;2.40;99.90;;;;;;5020922;28;20062;-81
2021/01/13 00:29:54;;;;;;;28.00;11.02;;;2.40;99.90;;;;;;5022012;28;20095;-82
2021/01/13 00:32:21;;;;;;;26.50;12.30;;;2.50;99.90;;;;;;5021941;28;20125;-81
2021/01/13 00:34:47;;;;;;;26.58;12.05;;;2.40;99.90;;;;;;5023803;28;20054;-82
2021/01/13 00:37:14;;;;;;;24.92;10.98;;;2.60;99.90;;;;;;5026038;28;20101;-83
2021/01/13 00:39:41;;;;;;;30.60;11.80;;;2.50;99.90;;;;;;5026566;28;20074;-82
2021/01/13 00:42:08;;;;;;;28.00;12.32;;;2.50;99.90;;;;;;5015325;28;20041;-82
2021/01/13 00:44:35;;;;;;;20.77;10.65;;;2.50;99.90;;;;;;5019399;28;20137;-81
2021/01/13 00:47:02;;;;;;;21.90;10.45;;;2.50;99.90;;;;;;5012472;28;20116;-83
2021/01/13 00:49:28;;;;;;;26.60;11.52;;;2.50;99.90;;;;;;5010628;28;20086;-81
2021/01/13 00:51:54;;;;;;;26.25;11.20;;;2.50;99.90;;;;;;5006116;28;20125;-80
2021/01/13 00:54:21;;;;;;;28.08;11.63;;;2.50;99.90;;;;;;5013326;28;20510;-80
2021/01/13 00:56:48;;;;;;;34.65;12.82;;;2.40;99.90;;;;;;5018049;28;20114;-79
2021/01/13 00:59:15;;;;;;;27.85;11.32;;;2.40;99.90;;;;;;5012266;28;20218;-81
2021/01/13 01:01:44;;;;;;;30.63;11.90;;;2.40;99.90;;;;;;5011506;28;20096;-80
2021/01/13 01:04:12;;;;;;;23.67;12.00;;;2.40;99.90;;;;;;5012958;28;20074;-80
2021/01/13 01:06:39;;;;;;;32.10;12.40;;;2.40;99.90;;;;;;5007239;28;20121;-81
2021/01/13 01:09:06;;;;;;;21.42;11.60;;;2.30;99.90;;;;;;5010449;28;20121;-81
2021/01/13 01:11:35;;;;;;;23.00;11.02;;;2.30;99.90;;;;;;5009348;28;20057;-81
2021/01/13 01:14:02;;;;;;;25.65;11.82;;;2.30;99.90;;;;;;5004535;28;20110;-81
2021/01/13 01:16:30;;;;;;;26.73;12.52;;;2.30;99.90;;;;;;4999638;28;20106;-81
2021/01/13 01:18:57;;;;;;;26.50;12.10;;;2.20;99.90;;;;;;5000542;28;20085;-82
2021/01/13 01:21:24;;;;;;;30.10;11.68;;;2.30;99.90;;;;;;5003294;28;20109;-82
2021/01/13 01:23:50;;;;;;;28.70;12.43;;;2.30;99.90;;;;;;5003778;28;20414;-82
2021/01/13 01:26:16;;;;;;;25.92;11.45;;;2.30;99.90;;;;;;5003198;28;20046;-81
2021/01/13 01:28:43;;;;;;;32.17;12.60;;;2.30;99.90;;;;;;5002996;28;20082;-82
2021/01/13 01:31:09;;;;;;;28.65;11.65;;;2.30;99.90;;;;;;5002124;28;20439;-81
2021/01/13 01:33:35;;;;;;;22.15;12.15;;;2.30;99.90;;;;;;5000806;28;20129;-81
2021/01/13 01:36:03;;;;;;;23.27;12.95;;;2.30;99.90;;;;;;5005185;28;20061;-80
2021/01/13 01:38:29;;;;;;;25.40;11.13;;;2.30;99.90;;;;;;5009203;28;20104;-82
2021/01/13 01:41:03;;;;;;;25.13;12.05;;;2.30;99.90;;;;;;5008686;28;20066;-80
2021/01/13 01:43:29;;;;;;;32.70;12.57;;;2.30;99.90;;;;;;5008935;28;20092;-82
2021/01/13 01:45:55;;;;;;;22.92;12.23;;;2.30;99.90;;;;;;5009021;28;20093;-81
2021/01/13 01:48:34;;;;;;;20.83;11.48;;;2.30;99.90;;;;;;5009295;28;20080;-82
2021/01/13 01:51:01;;;;;;;23.10;10.88;;;2.30;99.90;;;;;;5008467;28;20086;-81
2021/01/13 01:54:15;;;;;;;24.63;12.05;;;2.30;99.90;;;;;;5008453;28;20047;-81
2021/01/13 01:56:43;;;;;;;31.23;12.82;;;2.30;99.90;;;;;;5010198;28;20088;-81
2021/01/13 01:59:11;;;;;;;38.25;11.93;;;2.20;99.90;;;;;;5011359;28;20074;-82
2021/01/13 02:01:39;;;;;;;22.77;11.90;;;2.20;99.90;;;;;;5007277;28;20053;-83
2021/01/13 02:04:14;;;;;;;28.83;13.85;;;2.20;99.90;;;;;;5008169;28;20138;-82
2021/01/13 02:07:25;;;;;;;34.17;12.30;;;2.20;99.90;;;;;;5006536;28;20058;-82
2021/01/13 02:09:53;;;;;;;31.20;12.27;;;2.20;99.90;;;;;;4989463;28;20054;-82
2021/01/13 02:12:27;;;;;;;30.33;13.73;;;2.20;99.90;;;;;;5010255;28;20096;-81
2021/01/13 02:14:54;;;;;;;26.88;12.63;;;2.30;99.90;;;;;;5010518;28;20056;-81
2021/01/13 02:17:28;;;;;;;28.33;13.38;;;2.30;99.90;;;;;;5009412;28;20478;-83
2021/01/13 02:20:11;;;;;;;24.27;12.68;;;2.40;99.90;;;;;;5006188;28;20051;-80
2021/01/13 02:22:56;;;;;;;24.90;12.35;;;2.40;99.90;;;;;;5005392;28;20089;-80
2021/01/13 02:25:55;;;;;;;24.65;11.88;;;2.40;99.90;;;;;;5005572;28;20085;-80
2021/01/13 02:28:26;;;;;;;26.02;11.48;;;2.40;99.90;;;;;;5006460;28;20085;-80
2021/01/13 02:31:15;;;;;;;27.35;12.60;;;2.30;99.90;;;;;;5005329;28;20144;-80
2021/01/13 02:33:48;;;;;;;26.67;12.43;;;2.30;99.90;;;;;;5006054;28;20090;-82
2021/01/13 02:36:19;;;;;;;29.42;13.52;;;2.20;99.90;;;;;;5008232;28;20129;-80
2021/01/13 02:38:49;;;;;;;30.45;14.15;;;2.30;99.90;;;;;;5006873;28;20087;-81
2021/01/13 02:41:17;;;;;;;25.67;13.75;;;2.20;99.90;;;;;;5004467;28;20485;-82
2021/01/13 02:43:55;;;;;;;24.05;12.05;;;2.20;99.90;;;;;;5007289;28;20082;-82
2021/01/13 02:46:59;;;;;;;26.58;12.57;;;2.20;99.90;;;;;;5007007;28;20077;-82
2021/01/13 02:49:26;;;;;;;;;;;2.20;99.90;;;;;;5007658;28;20050;-81
2021/01/13 02:51:55;;;;;;;29.85;12.85;;;2.20;99.90;;;;;;5006089;28;20012;-81
2021/01/13 02:54:31;;;;;;;28.02;14.07;;;2.10;99.90;;;;;;5006750;28;20082;-81
2021/01/13 02:57:07;;;;;;;22.27;12.68;;;2.10;99.90;;;;;;5005756;28;20060;-81
2021/01/13 02:59:38;;;;;;;29.17;13.23;;;2.20;99.90;;;;;;5007094;28;20061;-80
2021/01/13 03:02:10;;;;;;;34.13;13.70;;;2.20;99.90;;;;;;5015199;28;20050;-80
2021/01/13 03:04:37;;;;;;;27.10;13.80;;;2.20;99.90;;;;;;5007187;28;20082;-81
2021/01/13 03:07:11;;;;;;;27.33;13.38;;;2.20;99.90;;;;;;5005473;28;20058;-80
2021/01/13 03:09:38;;;;;;;30.20;12.98;;;2.20;99.90;;;;;;5003422;28;20234;-80
2021/01/13 03:12:21;;;;;;;28.70;13.98;;;2.20;99.90;;;;;;5003671;28;20050;-80
2021/01/13 03:14:53;;;;;;;32.10;14.27;;;2.20;99.90;;;;;;5006007;28;20053;-80
2021/01/13 03:17:51;;;;;;;29.83;13.70;;;2.20;99.90;;;;;;5011330;28;20054;-79
2021/01/13 03:20:26;;;;;;;32.47;13.77;;;2.30;99.90;;;;;;5009782;28;20496;-79
2021/01/13 03:23:02;;;;;;;35.85;14.60;;;2.20;99.90;;;;;;5002392;28;20076;-79
2021/01/13 03:25:37;;;;;;;29.88;13.65;;;2.20;99.90;;;;;;5002973;28;20058;-78
2021/01/13 03:28:05;;;;;;;32.50;15.32;;;2.20;99.90;;;;;;5004924;28;20114;-79
2021/01/13 03:30:34;;;;;;;32.05;14.48;;;2.30;99.90;;;;;;5005503;28;20105;-78
2021/01/13 03:33:26;;;;;;;29.20;13.55;;;2.20;99.90;;;;;;5004365;28;20054;-80
2021/01/13 03:35:56;;;;;;;27.27;14.73;;;2.20;99.90;;;;;;5002807;28;20093;-79
2021/01/13 03:38:28;;;;;;;25.63;14.98;;;2.20;99.90;;;;;;5004240;28;20113;-80
2021/01/13 03:41:04;;;;;;;31.33;15.70;;;2.20;99.90;;;;;;5006693;28;20081;-80
2021/01/13 03:43:36;;;;;;;30.00;15.88;;;2.20;99.90;;;;;;5001685;28;20050;-78
2021/01/13 03:46:06;;;;;;;29.58;14.40;;;2.20;99.90;;;;;;4997719;28;20502;-78
2021/01/13 03:48:48;;;;;;;32.70;15.18;;;2.20;99.90;;;;;;4997980;28;20142;-77
2021/01/13 03:51:40;;;;;;;33.15;14.50;;;2.20;99.90;;;;;;4994920;28;20133;-78
2021/01/13 03:54:08;;;;;;;28.65;16.63;;;2.30;99.90;;;;;;5001256;28;20137;-80
2021/01/13 03:56:53;;;;;;;27.60;15.10;;;2.30;99.90;;;;;;5005400;28;20093;-80
2021/01/13 03:59:41;;;;;;;31.77;15.93;;;2.30;99.90;;;;;;5004541;28;20518;-80
2021/01/13 04:02:09;;;;;;;29.58;15.48;;;2.30;99.90;;;;;;5003926;28;20133;-79
2021/01/13 04:04:55;;;;;;;27.77;15.35;;;2.30;99.90;;;;;;5004733;28;20078;-80
2021/01/13 04:07:23;;;;;;;28.23;16.15;;;2.30;99.90;;;;;;5004188;28;20046;-80
2021/01/13 04:09:52;;;;;;;29.08;15.93;;;2.30;99.90;;;;;;5002613;28;20058;-78
2021/01/13 04:12:21;;;;;;;34.17;15.43;;;2.30;99.90;;;;;;5000171;28;20426;-79
2021/01/13 04:14:56;;;;;;;28.92;17.58;;;2.40;99.90;;;;;;5000277;28;20054;-79
2021/01/13 04:17:25;;;;;;;30.13;16.90;;;2.30;99.90;;;;;;5002477;28;20697;-79
2021/01/13 04:19:52;;;;;;;28.15;15.93;;;2.30;99.90;;;;;;5004035;28;20081;-79
2021/01/13 04:22:25;;;;;;;36.25;19.70;;;2.30;99.90;;;;;;5002059;28;20125;-79
2021/01/13 04:24:53;;;;;;;37.30;19.33;;;2.30;99.90;;;;;;5004133;28;20057;-81
2021/01/13 04:27:20;;;;;;;32.20;17.35;;;2.30;99.90;;;;;;5003136;28;20080;-80
2021/01/13 04:29:46;;;;;;;34.08;17.00;;;2.30;99.90;;;;;;5003270;28;20074;-80
2021/01/13 04:32:13;;;;;;;33.35;18.30;;;2.30;99.90;;;;;;5003981;28;20139;-79
2021/01/13 04:34:42;;;;;;;31.17;17.77;;;2.30;99.90;;;;;;5003969;28;20078;-81
2021/01/13 04:37:09;;;;;;;38.08;19.42;;;2.30;99.90;;;;;;5005734;28;20061;-79
2021/01/13 04:39:37;;;;;;;35.22;18.27;;;2.30;99.90;;;;;;5003959;28;20133;-78
2021/01/13 04:42:09;;;;;;;38.75;19.63;;;2.30;99.90;;;;;;5003755;28;20108;-80
2021/01/13 04:44:44;;;;;;;37.35;18.58;;;2.30;99.90;;;;;;5002575;28;20136;-80
2021/01/13 04:47:11;;;;;;;36.17;18.40;;;2.30;99.90;;;;;;5001997;28;20046;-81
2021/01/13 04:49:38;;;;;;;38.97;20.00;;;2.30;99.90;;;;;;5001604;28;20086;-81
2021/01/13 04:52:10;;;;;;;39.28;20.00;;;2.30;99.90;;;;;;5003755;28;20101;-81
2021/01/13 04:54:38;;;;;;;38.55;19.92;;;2.30;99.90;;;;;;5002834;28;20077;-80
2021/01/13 04:57:41;;;;;;;39.10;19.50;;;2.40;99.90;;;;;;4998982;28;20050;-79
2021/01/13 05:00:11;;;;;;;37.13;18.95;;;2.50;99.90;;;;;;4997295;28;20141;-80
2021/01/13 05:03:13;;;;;;;34.40;19.75;;;2.50;99.90;;;;;;4996565;28;20072;-81
2021/01/13 05:05:49;;;;;;;34.80;18.35;;;2.50;99.90;;;;;;4981631;28;20054;-80
2021/01/13 05:08:35;;;;;;;38.72;17.95;;;2.50;99.90;;;;;;4996129;28;20077;-80
2021/01/13 05:11:11;;;;;;;36.58;18.75;;;2.60;99.90;;;;;;4995739;28;20133;-79
2021/01/13 05:13:41;;;;;;;34.88;19.17;;;2.60;99.90;;;;;;4995456;28;20128;-80
2021/01/13 05:16:12;;;;;;;39.55;20.65;;;2.70;99.90;;;;;;4996211;28;20130;-81
2021/01/13 05:18:56;;;;;;;39.92;19.77;;;2.60;99.90;;;;;;4997130;28;20050;-82
2021/01/13 05:21:24;;;;;;;38.40;18.98;;;2.60;99.90;;;;;;5003114;28;20074;-83
2021/01/13 05:23:53;;;;;;;41.58;20.95;;;2.60;99.90;;;;;;5014756;28;20066;-80
2021/01/13 05:26:21;;;;;;;42.33;20.10;;;2.70;99.90;;;;;;5008510;28;20050;-82
2021/01/13 05:29:16;;;;;;;38.72;21.60;;;2.70;99.90;;;;;;5003181;28;20101;-82
2021/01/13 05:31:45;;;;;;;42.03;21.73;;;2.70;99.90;;;;;;5003137;28;20102;-82
2021/01/13 05:34:17;;;;;;;37.80;19.42;;;2.70;99.90;;;;;;5003577;28;20082;-80
2021/01/13 05:37:02;;;;;;;35.97;20.23;;;2.80;99.90;;;;;;5003244;28;20050;-80
2021/01/13 05:39:30;;;;;;;40.60;19.65;;;2.80;99.90;;;;;;5009058;28;20074;-83
2021/01/13 05:42:01;;;;;;;38.78;20.05;;;2.80;99.90;;;;;;5008424;28;20066;-80
2021/01/13 05:44:30;;;;;;;33.15;18.83;;;2.80;99.90;;;;;;5003890;28;20077;-80
2021/01/13 05:47:03;;;;;;;34.25;19.90;;;2.80;99.90;;;;;;5003015;28;20109;-80
2021/01/13 05:49:30;;;;;;;32.83;18.20;;;2.80;99.90;;;;;;5003844;28;20101;-81
2021/01/13 05:52:05;;;;;;;34.05;17.33;;;2.80;99.90;;;;;;5002479;28;20097;-80
2021/01/13 05:54:36;;;;;;;36.53;20.45;;;2.80;99.90;;;;;;5002275;28;20050;-82
2021/01/13 05:57:04;;;;;;;37.80;21.10;;;2.70;99.90;;;;;;5003306;28;20053;-80
2021/01/13 05:59:31;;;;;;;34.33;18.13;;;2.80;99.90;;;;;;5003830;28;20066;-81
2021/01/13 06:01:59;;;;;;;30.10;16.58;;;2.80;99.90;;;;;;5004188;28;20069;-81
2021/01/13 06:04:27;;;;;;;35.67;17.77;;;2.80;99.90;;;;;;5005127;28;20062;-82
2021/01/13 06:07:09;;;;;;;32.85;17.95;;;2.90;99.90;;;;;;5004496;28;20091;-81
2021/01/13 06:09:41;;;;;;;34.75;17.95;;;2.80;99.90;;;;;;5004412;28;20114;-82
2021/01/13 06:12:15;;;;;;;35.55;16.63;;;2.80;99.90;;;;;;5003273;28;20077;-80
2021/01/13 06:14:42;;;;;;;40.28;17.20;;;2.80;99.90;;;;;;5002736;28;20050;-78
2021/01/13 06:17:18;;;;;;;35.03;16.40;;;2.90;99.90;;;;;;5000414;28;20093;-79
2021/01/13 06:19:48;;;;;;;37.08;16.33;;;2.80;99.90;;;;;;4998968;28;20112;-80
2021/01/13 06:22:15;;;;;;;36.72;16.23;;;2.90;99.90;;;;;;5001043;28;20046;-79
2021/01/13 06:24:43;;;;;;;30.52;15.82;;;2.90;99.90;;;;;;5003167;28;20154;-80
2021/01/13 06:27:18;;;;;;;26.95;14.75;;;2.90;99.90;;;;;;5002145;28;20078;-80
2021/01/13 06:29:49;;;;;;;26.80;13.85;;;3.00;99.90;;;;;;5002878;28;20086;-78
2021/01/13 06:32:28;;;;;;;33.63;14.73;;;3.00;99.90;;;;;;5003082;28;20136;-80
2021/01/13 06:35:04;;;;;;;30.00;14.38;;;3.00;99.90;;;;;;5002682;28;20054;-79
2021/01/13 06:37:46;;;;;;;26.88;14.35;;;3.00;99.90;;;;;;5002673;28;20137;-80
2021/01/13 06:40:15;;;;;;;33.85;16.60;;;3.00;99.90;;;;;;5003201;28;20058;-79
2021/01/13 06:42:42;;;;;;;29.85;15.23;;;3.00;99.90;;;;;;5002381;28;20058;-80
2021/01/13 06:45:10;;;;;;;33.58;15.85;;;3.00;99.90;;;;;;5003388;28;20094;-79
2021/01/13 06:47:53;;;;;;;29.30;14.82;;;3.00;99.90;;;;;;5004626;28;20050;-81
2021/01/13 06:50:34;;;;;;;31.13;15.48;;;3.00;99.90;;;;;;5003169;28;20113;-79
2021/01/13 06:53:05;;;;;;;40.58;16.42;;;2.90;99.90;;;;;;5003165;28;20164;-81
2021/01/13 06:55:33;;;;;;;30.73;15.55;;;2.90;99.90;;;;;;5006015;28;20522;-82
2021/01/13 06:58:12;;;;;;;37.40;17.67;;;2.80;99.90;;;;;;5003881;28;20408;-82
2021/01/13 07:00:39;;;;;;;30.45;16.70;;;2.80;99.90;;;;;;5002896;28;20054;-80
2021/01/13 07:03:25;;;;;;;30.80;17.30;;;2.80;99.90;;;;;;5001662;28;20073;-81
2021/01/13 07:05:52;;;;;;;40.10;18.67;;;2.80;99.90;;;;;;5003572;28;20057;-81
2021/01/13 07:08:19;;;;;;;35.45;17.50;;;2.80;99.90;;;;;;5005533;28;20510;-81
2021/01/13 07:10:46;;;;;;;36.42;20.58;;;2.70;99.90;;;;;;5007397;28;20089;-82
2021/01/13 07:13:14;;;;;;;30.00;17.90;;;2.70;99.90;;;;;;5003213;28;20086;-82
2021/01/13 07:15:41;;;;;;;37.50;17.92;;;2.70;99.90;;;;;;5003874;28;20050;-80
2021/01/13 07:18:08;;;;;;;38.53;18.55;;;2.70;99.90;;;;;;5004127;28;20054;-80
2021/01/13 07:20:39;;;;;;;33.78;18.20;;;2.60;99.90;;;;;;5003239;28;20047;-81
2021/01/13 07:23:07;;;;;;;33.92;18.50;;;2.50;99.90;;;;;;5000671;28;20097;-80
2021/01/13 07:25:36;;;;;;;34.35;18.05;;;2.50;99.90;;;;;;5002310;28;20092;-79
2021/01/13 07:28:04;;;;;;;37.83;19.92;;;2.50;99.90;;;;;;5002361;28;20108;-80
2021/01/13 07:30:31;;;;;;;39.40;20.90;;;2.50;99.90;;;;;;5001438;28;20081;-80
2021/01/13 07:32:59;;;;;;;37.90;20.48;;;2.50;99.90;;;;;;5001606;28;20057;-79
2021/01/13 07:35:30;;;;;;;42.58;21.73;;;2.40;99.90;;;;;;5001238;28;20054;-80
2021/01/13 07:38:00;;;;;;;36.08;20.30;;;2.40;99.90;;;;;;5002232;28;20054;-81
2021/01/13 07:40:33;;;;;;;41.20;20.58;;;2.40;99.90;;;;;;5002320;28;20467;-80
2021/01/13 07:43:08;;;;;;;36.47;21.45;;;2.40;99.90;;;;;;5002187;28;20073;-80
2021/01/13 07:45:43;;;;;;;44.30;21.85;;;2.30;99.90;;;;;;5007861;28;20073;-77
2021/01/13 07:48:53;;;;;;;39.47;20.10;;;2.40;99.90;;;;;;5002598;28;20070;-80
2021/01/13 07:51:20;;;;;;;36.85;19.58;;;2.30;99.90;;;;;;4999508;28;20054;-81
2021/01/13 07:54:06;;;;;;;33.00;18.98;;;2.30;99.90;;;;;;4998176;28;20088;-79
2021/01/13 07:56:36;;;;;;;38.78;21.60;;;2.30;99.90;;;;;;4997164;28;20065;-80
2021/01/13 07:59:39;;;;;;;41.53;19.48;;;2.40;99.90;;;;;;4998601;28;20104;-80
2021/01/13 08:02:27;;;;;;;;;;;2.40;99.90;;;;;;5005377;28;20490;-80
2021/01/13 08:05:32;;;;;;;29.60;19.33;;;2.40;99.90;;;;;;5001084;28;19926;-78
2021/01/13 08:08:07;;;;;;;30.20;18.35;;;2.50;99.90;;;;;;4997899;28;20093;-80
2021/01/13 08:10:36;;;;;;;34.67;18.67;;;2.50;99.90;;;;;;5000074;28;20057;-80
2021/01/13 08:13:39;;;;;;;41.15;18.23;;;2.70;99.90;;;;;;4999083;28;20570;-81
2021/01/13 08:16:45;;;;;;;34.40;16.63;;;2.80;99.90;;;;;;4998942;28;20637;-80
2021/01/13 08:19:52;;;;;;;34.25;16.58;;;2.90;99.90;;;;;;4998632;28;20136;-80
2021/01/13 08:22:21;;;;;;;24.67;14.95;;;3.00;99.90;;;;;;4986333;28;20046;-80
2021/01/13 08:24:58;;;;;;;32.80;15.18;;;3.10;99.90;;;;;;4999638;28;20596;-79
2021/01/13 08:27:26;;;;;;;35.10;15.23;;;3.20;99.90;;;;;;4999037;28;20229;-80
2021/01/13 08:29:56;;;;;;;28.88;15.15;;;3.30;99.90;;;;;;4999043;28;20081;-78
2021/01/13 08:32:30;;;;;;;25.08;14.13;;;3.20;99.90;;;;;;4998109;28;20509;-81
2021/01/13 08:35:04;;;;;;;28.95;15.32;;;3.20;99.90;;;;;;4997387;28;20114;-80
2021/01/13 08:37:32;;;;;;;30.50;16.20;;;3.20;99.90;;;;;;4998078;28;20110;-80
2021/01/13 08:39:59;;;;;;;26.73;15.25;;;3.10;99.90;;;;;;4998072;28;20573;-80
2021/01/13 08:42:29;;;;;;;22.40;13.57;;;3.10;99.90;;;;;;4996868;28;20136;-80
2021/01/13 08:44:56;;;;;;;27.08;13.40;;;3.10;99.90;;;;;;4998068;28;20065;-80
2021/01/13 08:47:25;;;;;;;30.92;15.15;;;3.20;99.90;;;;;;4997999;28;20120;-80
2021/01/13 08:49:52;;;;;;;24.27;12.75;;;3.20;99.90;;;;;;4997756;28;20146;-79
2021/01/13 08:52:21;;;;;;;25.98;12.88;;;3.30;99.90;;;;;;4997412;28;20085;-81
2021/01/13 08:55:13;;;;;;;20.80;12.35;;;3.40;99.90;;;;;;4997862;28;20093;-79
2021/01/13 08:57:54;;;;;;;24.00;12.65;;;3.40;99.90;;;;;;4998581;28;20137;-81
2021/01/13 09:00:22;;;;;;;27.17;12.27;;;3.50;99.90;;;;;;4998724;28;20054;-81
2021/01/13 09:03:11;;;;;;;24.27;11.60;;;3.60;99.90;;;;;;4997285;28;20078;-79
2021/01/13 09:05:40;;;;;;;24.08;12.35;;;3.60;99.90;;;;;;4998241;28;20418;-81
2021/01/13 09:08:09;;;;;;;27.50;12.35;;;3.60;99.90;;;;;;4996860;28;20484;-82
2021/01/13 09:10:51;;;;;;;25.63;12.50;;;3.70;99.90;;;;;;4977677;28;20070;-79
2021/01/13 09:13:33;;;;;;;27.33;13.30;;;3.70;99.90;;;;;;4976287;28;20091;-79
2021/01/13 09:16:33;;;;;;;21.23;11.73;;;3.80;99.90;;;;;;4973746;28;20514;-80
2021/01/13 09:19:03;;;;;;;20.08;10.35;;;3.90;99.90;;;;;;4977241;28;20110;-80
2021/01/13 09:21:31;;;;;;;25.38;11.73;;;4.00;99.90;;;;;;4978065;28;20046;-82
2021/01/13 09:23:58;;;;;;;24.83;10.45;;;4.00;99.90;;;;;;4980045;28;20051;-81
2021/01/13 09:26:31;;;;;;;23.83;12.45;;;4.20;99.90;;;;;;5012865;23;20462;-78
2021/01/13 09:29:06;;;;;;;21.02;11.00;;;4.20;99.90;;;;;;5006289;28;20494;-80
2021/01/13 09:31:34;;;;;;;22.92;12.35;;;4.20;99.90;;;;;;5014735;28;20490;-79
2021/01/13 09:34:01;;;;;;;23.25;12.95;;;4.20;99.90;;;;;;5013495;28;20072;-80
2021/01/13 09:36:28;;;;;;;25.30;12.20;;;4.30;99.90;;;;;;5014853;28;20080;-80
2021/01/13 09:39:12;;;;;;;22.85;12.07;;;4.30;99.90;;;;;;5014522;28;20509;-79
2021/01/13 09:41:41;;;;;;;26.58;12.73;;;4.30;99.90;;;;;;5014835;28;20075;-79
2021/01/13 09:44:12;;;;;;;23.77;13.75;;;4.30;99.90;;;;;;5023519;28;20142;-81
2021/01/13 09:46:41;;;;;;;21.08;13.23;;;4.20;99.90;;;;;;5030485;28;20042;-80
2021/01/13 09:49:09;;;;;;;31.60;15.82;;;4.30;99.90;;;;;;5031012;28;20054;-80
2021/01/13 09:51:37;;;;;;;21.42;13.05;;;4.30;99.90;;;;;;5033275;28;20056;-81
2021/01/13 09:54:04;;;;;;;25.63;15.48;;;4.30;99.90;;;;;;5034423;28;20046;-81
2021/01/13 09:56:32;;;;;;;30.73;15.55;;;4.30;99.90;;;;;;5033116;28;20411;-82
2021/01/13 09:59:01;;;;;;;27.40;14.55;;;4.40;99.90;;;;;;5024395;28;20061;-80
2021/01/13 10:01:29;;;;;;;30.50;15.25;;;4.40;99.90;;;;;;5020668;28;20053;-80
2021/01/13 10:03:58;;;;;;;27.63;16.27;;;4.50;99.90;;;;;;5020208;28;20064;-81
2021/01/13 10:06:27;;;;;;;29.35;15.05;;;4.60;99.90;;;;;;5020277;28;20088;-80
2021/01/13 10:08:55;;;;;;;28.67;15.00;;;4.60;99.90;;;;;;5027525;28;20270;-81
2021/01/13 10:11:25;;;;;;;27.75;14.63;;;4.70;99.90;;;;;;5029968;28;20082;-82
2021/01/13 10:14:02;;;;;;;24.15;13.57;;;4.80;99.90;;;;;;5024086;28;20061;-81
2021/01/13 10:16:29;;;;;;;22.45;13.45;;;4.80;99.90;;;;;;5020516;28;20046;-83
2021/01/13 10:18:58;;;;;;;26.08;13.52;;;4.80;99.90;;;;;;5018419;28;20148;-82
2021/01/13 10:21:25;;;;;;;22.50;11.93;;;4.80;99.90;;;;;;5018643;28;20136;-81
2021/01/13 10:23:52;;;;;;;22.85;12.10;;;4.80;99.90;;;;;;5018005;28;20133;-81
2021/01/13 10:26:19;;;;;;;24.13;12.13;;;4.70;99.90;;;;;;5018073;28;20053;-80
2021/01/13 10:28:46;;;;;;;20.58;12.18;;;4.70;99.90;;;;;;5000158;28;20085;-78
2021/01/13 10:31:24;;;;;;;25.83;11.13;;;4.70;99.90;;;;;;4989421;28;20058;-80
2021/01/13 10:33:52;;;;;;;18.90;10.45;;;4.70;99.90;;;;;;4988363;28;20534;-80
2021/01/13 10:36:37;;;;;;;20.20;10.50;;;4.70;99.90;;;;;;4993583;28;20070;-79
2021/01/13 10:39:07;;;;;;;31.40;12.38;;;4.70;99.90;;;;;;4994934;28;20050;-82
2021/01/13 10:41:36;;;;;;;21.02;11.30;;;4.70;99.90;;;;;;4995683;28;20511;-80
2021/01/13 10:44:06;;;;;;;23.90;12.10;;;4.70;99.90;;;;;;4994314;28;20070;-81
2021/01/13 10:46:43;;;;;;;18.85;8.85;;;4.70;99.90;;;;;;4993841;28;20074;-80
2021/01/13 10:49:14;;;;;;;29.27;12.13;;;4.70;99.90;;;;;;4994370;28;20042;-82
2021/01/13 10:51:47;;;;;;;25.83;11.13;;;4.80;99.90;;;;;;4990495;28;20054;-81
2021/01/13 10:54:18;;;;;;;25.92;11.43;;;4.90;99.90;;;;;;4996112;28;20082;-78
2021/01/13 10:56:45;;;;;;;24.40;11.48;;;4.90;99.90;;;;;;4988236;28;20051;-80
2021/01/13 10:59:16;;;;;;;21.42;10.63;;;4.90;99.90;;;;;;4990862;28;20046;-81
2021/01/13 11:01:46;;;;;;;21.15;11.13;;;4.90;99.90;;;;;;4987704;28;20462;-80
2021/01/13 11:04:27;;;;;;;23.65;11.60;;;4.80;99.90;;;;;;4989232;28;20054;-77
2021/01/13 11:06:57;;;;;;;22.60;10.40;;;4.80;99.90;;;;;;4987274;28;20136;-82
2021/01/13 11:09:24;;;;;;;22.48;11.68;;;4.80;99.90;;;;;;4985061;28;20086;-78
2021/01/13 11:11:51;;;;;;;19.38;10.13;;;4.90;99.90;;;;;;4987262;28;20090;-80
2021/01/13 11:14:29;;;;;;;18.52;9.50;;;4.90;99.90;;;;;;4978487;28;20101;-81
2021/01/13 11:17:07;;;;;;;18.10;9.68;;;4.90;99.90;;;;;;4983382;28;20046;-80
2021/01/13 11:19:34;;;;;;;18.63;9.93;;;4.90;99.90;;;;;;4979480;28;20547;-79
2021/01/13 11:22:01;;;;;;;22.65;9.55;;;5.00;99.90;;;;;;4980779;28;20058;-79
2021/01/13 11:24:36;;;;;;;25.15;10.02;;;5.00;99.90;;;;;;4980840;28;20057;-79
2021/01/13 11:27:09;;;;;;;19.00;9.05;;;5.10;99.90;;;;;;4979949;28;20058;-79
2021/01/13 11:29:37;;;;;;;24.17;10.13;;;5.10;99.90;;;;;;4983685;28;20088;-80
2021/01/13 11:32:06;;;;;;;20.55;9.77;;;5.20;99.90;;;;;;4985772;28;20189;-77
2021/01/13 11:34:33;;;;;;;24.50;9.63;;;5.20;99.90;;;;;;4987133;28;20109;-80
2021/01/13 11:37:33;;;;;;;18.17;9.05;;;5.20;99.90;;;;;;4980409;28;20052;-79
2021/01/13 11:40:32;;;;;;;17.83;8.48;;;5.20;99.90;;;;;;4983458;28;20146;-79
2021/01/13 11:43:35;;;;;;;18.02;9.07;;;5.20;99.90;;;;;;4991984;28;20050;-81
2021/01/13 11:46:10;;;;;;;;;;;5.20;99.90;;;;;;4996841;28;20046;-80
2021/01/13 11:49:03;;;;;;;14.85;8.50;;;5.20;99.90;;;;;;5004095;28;19960;-80
2021/01/13 11:51:37;;;;;;;15.88;7.30;;;5.20;99.90;;;;;;5000438;28;20069;-81
2021/01/13 11:54:06;;;;;;;15.50;7.80;;;5.20;99.90;;;;;;4983786;28;20132;-79
2021/01/13 11:56:32;;;;;;;20.05;7.60;;;5.20;99.90;;;;;;4988111;28;20122;-85
2021/01/13 11:58:59;;;;;;;21.35;7.45;;;5.20;99.90;;;;;;4988745;28;20407;-81
2021/01/13 12:01:26;;;;;;;17.58;7.72;;;5.20;99.90;;;;;;4998336;28;20087;-80
2021/01/13 12:04:00;;;;;;;15.45;7.47;;;5.20;99.90;;;;;;4987202;28;20423;-80
2021/01/13 12:06:27;;;;;;;18.13;8.38;;;5.40;99.90;;;;;;4982880;28;20129;-81
2021/01/13 12:08:53;;;;;;;17.08;9.20;;;5.40;99.90;;;;;;4985797;28;20143;-78
2021/01/13 12:11:21;;;;;;;22.33;9.70;;;5.30;99.90;;;;;;4985739;28;20133;-82
2021/01/13 12:13:49;;;;;;;16.35;8.55;;;5.40;99.90;;;;;;4985496;28;20069;-81
2021/01/13 12:16:17;;;;;;;18.92;8.50;;;5.40;99.90;;;;;;4994372;28;20123;-79
2021/01/13 12:18:45;;;;;;;24.23;9.93;;;5.30;99.90;;;;;;4994986;28;20077;-82
2021/01/13 12:21:28;;;;;;;18.30;9.10;;;5.30;99.90;;;;;;4988572;28;20479;-80
2021/01/13 12:23:54;;;;;;;;;;;5.30;99.90;;;;;;4991096;28;20061;-80
2021/01/13 12:26:23;;;;;;;19.10;9.13;;;5.30;99.90;;;;;;5000833;28;19928;-81
2021/01/13 12:28:51;;;;;;;22.00;8.70;;;5.20;99.90;;;;;;4984067;28;20093;-81
2021/01/13 12:31:19;;;;;;;18.90;8.68;;;5.10;99.90;;;;;;4983041;28;20134;-81
2021/01/13 12:33:51;;;;;;;19.60;8.10;;;5.20;99.90;;;;;;4983253;28;20491;-79
2021/01/13 12:36:22;;;;;;;20.80;9.35;;;5.20;99.90;;;;;;4980801;28;20122;-81
2021/01/13 12:38:49;;;;;;;15.15;8.75;;;5.30;99.90;;;;;;5003353;28;20125;-81
2021/01/13 12:41:20;;;;;;;13.45;7.82;;;5.30;99.90;;;;;;5006880;28;20081;-78
2021/01/13 12:43:48;;;;;;;15.02;7.88;;;5.30;99.90;;;;;;4994896;28;20070;-79
2021/01/13 12:46:24;;;;;;;16.70;8.18;;;5.30;99.90;;;;;;4998980;28;20130;-80
2021/01/13 12:48:53;;;;;;;18.95;8.38;;;5.30;99.90;;;;;;4983594;28;20138;-78
2021/01/13 12:51:20;;;;;;;22.92;9.73;;;5.40;99.90;;;;;;4983794;28;20536;-80
2021/01/13 12:53:52;;;;;;;21.85;9.68;;;5.30;99.90;;;;;;4987450;28;20038;-80
2021/01/13 12:56:27;;;;;;;16.40;10.05;;;5.40;99.90;;;;;;4994792;28;20431;-81
2021/01/13 12:58:55;;;;;;;15.82;9.60;;;5.50;99.90;;;;;;4984170;28;20110;-81
2021/01/13 13:01:22;;;;;;;26.70;9.93;;;5.60;99.90;;;;;;4992127;28;20129;-82
2021/01/13 13:03:49;;;;;;;18.02;8.75;;;5.60;99.90;;;;;;4987706;28;20081;-82
2021/01/13 13:06:25;;;;;;;18.15;8.38;;;5.50;99.90;;;;;;4994714;28;20085;-82
2021/01/13 13:08:52;;;;;;;19.35;8.35;;;5.50;99.90;;;;;;5004223;28;20149;-80